createdAt,value
2024-04-10T00:00:22.274Z,0.98
2024-04-10T00:02:49.345Z,1.30
2024-04-10T00:05:16.476Z,2.22
2024-04-10T00:07:43.362Z,0.93
2024-04-10T00:10:10.820Z,1.35
2024-04-10T00:12:38.157Z,1.15
2024-04-10T00:15:05.672Z,1.05
2024-04-10T00:17:32.548Z,1.35
2024-04-10T00:19:59.494Z,2.50
2024-04-10T00:22:27.974Z,1.10
2024-04-10T00:24:54.919Z,1.25
2024-04-10T00:27:24.695Z,1.27
2024-04-10T00:29:52.316Z,1.38
2024-04-10T00:32:19.385Z,1.35
2024-04-10T00:34:46.470Z,1.52
2024-04-10T00:37:13.297Z,1.40
2024-04-10T00:39:40.058Z,1.17
2024-04-10T00:42:06.804Z,0.88
2024-04-10T00:44:33.947Z,1.25
2024-04-10T00:47:00.981Z,1.65
2024-04-10T00:49:28.152Z,1.13
2024-04-10T00:51:55.038Z,1.30
2024-04-10T00:54:23.910Z,1.42
2024-04-10T00:56:50.688Z,1.35
2024-04-10T00:59:17.567Z,1.10
2024-04-10T01:01:44.364Z,1.15
2024-04-10T01:04:11.419Z,1.10
2024-04-10T01:06:38.213Z,1.10
2024-04-10T01:09:04.990Z,1.20
2024-04-10T01:11:31.934Z,1.30
2024-04-10T01:13:58.880Z,1.20
2024-04-10T01:16:25.890Z,1.10
2024-04-10T01:18:52.729Z,1.13
2024-04-10T01:21:19.565Z,1.20
2024-04-10T01:23:46.377Z,1.15
2024-04-10T01:26:13.268Z,1.23
2024-04-10T01:28:40.052Z,1.05
2024-04-10T01:31:06.804Z,1.35
2024-04-10T01:33:35.972Z,1.05
2024-04-10T01:36:04.983Z,0.98
2024-04-10T01:38:31.945Z,1.38
2024-04-10T01:40:58.892Z,1.00
2024-04-10T01:43:25.623Z,1.02
2024-04-10T01:45:52.775Z,1.55
2024-04-10T01:48:19.930Z,1.00
2024-04-10T01:50:47.037Z,1.55
2024-04-10T01:53:13.839Z,1.27
2024-04-10T01:55:40.702Z,1.20
2024-04-10T01:58:07.425Z,1.65
2024-04-10T02:00:36.942Z,1.30
2024-04-10T02:03:04.054Z,1.38
2024-04-10T02:05:31.328Z,1.10
2024-04-10T02:07:58.345Z,2.03
2024-04-10T02:10:25.146Z,1.20
2024-04-10T02:12:51.868Z,1.67
2024-04-10T02:15:18.661Z,1.30
2024-04-10T02:17:45.417Z,1.13
2024-04-10T02:20:12.369Z,1.27
2024-04-10T02:22:42.714Z,1.10
2024-04-10T02:25:09.697Z,1.10
2024-04-10T02:27:36.407Z,1.00
2024-04-10T02:30:03.238Z,1.10
2024-04-10T02:32:30.306Z,1.10
2024-04-10T02:34:57.278Z,1.00
2024-04-10T02:37:25.145Z,1.00
2024-04-10T02:39:53.214Z,1.20
2024-04-10T02:42:20.130Z,1.90
2024-04-10T02:44:52.311Z,1.70
2024-04-10T02:47:20.926Z,1.20
2024-04-10T02:49:48.069Z,0.90
2024-04-10T02:52:15.061Z,1.17
2024-04-10T02:54:41.886Z,1.88
2024-04-10T02:57:08.777Z,1.38
2024-04-10T02:59:35.532Z,1.30
2024-04-10T03:02:02.403Z,2.10
2024-04-10T03:04:29.337Z,1.67
2024-04-10T03:06:56.185Z,1.65
2024-04-10T03:09:22.952Z,1.67
2024-04-10T03:11:50.467Z,1.30
2024-04-10T03:14:18.151Z,1.85
2024-04-10T03:16:45.356Z,1.88
2024-04-10T03:19:12.164Z,1.60
2024-04-10T03:21:38.926Z,3.08
2024-04-10T03:24:08.388Z,1.48
2024-04-10T03:26:35.593Z,2.60
2024-04-10T03:29:02.404Z,2.00
2024-04-10T03:31:29.162Z,1.80
2024-04-10T03:33:56.117Z,1.88
2024-04-10T03:36:25.710Z,1.95
2024-04-10T03:38:53.323Z,1.90
2024-04-10T03:41:21.421Z,1.83
2024-04-10T03:43:49.703Z,2.15
2024-04-10T03:46:16.585Z,2.35
2024-04-10T03:48:43.630Z,1.58
2024-04-10T03:51:10.648Z,1.75
2024-04-10T03:53:37.587Z,2.45
2024-04-10T03:56:04.779Z,2.40
2024-04-10T03:58:31.740Z,2.08
2024-04-10T04:00:59.189Z,2.25
2024-04-10T04:03:26.459Z,2.40
2024-04-10T04:05:53.577Z,1.95
2024-04-10T04:08:22.188Z,2.35
2024-04-10T04:10:49.359Z,2.13
2024-04-10T04:13:16.236Z,2.00
2024-04-10T04:15:43.017Z,2.17
2024-04-10T04:18:10.660Z,1.90
2024-04-10T04:20:37.706Z,1.95
2024-04-10T04:23:04.796Z,2.22
2024-04-10T04:25:33.283Z,3.03
2024-04-10T04:28:00.314Z,2.70
2024-04-10T04:30:27.427Z,2.20
2024-04-10T04:32:57.917Z,2.22
2024-04-10T04:35:24.936Z,2.23
2024-04-10T04:37:59.070Z,2.13
2024-04-10T04:40:33.379Z,2.80
2024-04-10T04:43:09.459Z,2.75
2024-04-10T04:45:37.879Z,1.90
2024-04-10T04:48:08.520Z,2.67
2024-04-10T04:50:36.128Z,2.10
2024-04-10T04:53:03.068Z,2.90
2024-04-10T04:55:29.863Z,1.83
2024-04-10T04:57:56.575Z,2.00
2024-04-10T05:00:23.652Z,2.45
2024-04-10T05:02:50.504Z,2.58
2024-04-10T05:05:20.049Z,3.15
2024-04-10T05:07:46.913Z,2.25
2024-04-10T05:10:14.577Z,2.28
2024-04-10T05:12:44.703Z,1.85
2024-04-10T05:15:13.196Z,2.03
2024-04-10T05:17:45.482Z,2.45
2024-04-10T05:20:18.345Z,1.75
2024-04-10T05:22:46.012Z,2.25
2024-04-10T05:25:13.719Z,2.28
2024-04-10T05:27:42.835Z,2.10
2024-04-10T05:30:11.025Z,2.53
2024-04-10T05:32:41.159Z,2.20
2024-04-10T05:35:16.379Z,1.97
2024-04-10T05:37:43.148Z,2.42
2024-04-10T05:40:15.405Z,1.90
2024-04-10T05:42:42.916Z,2.20
2024-04-10T05:45:11.454Z,2.38
2024-04-10T05:47:43.181Z,2.47
2024-04-10T05:50:11.379Z,2.17
2024-04-10T05:52:40.953Z,2.00
2024-04-10T05:55:08.191Z,1.90
2024-04-10T05:57:34.965Z,2.22
2024-04-10T06:00:01.699Z,3.35
2024-04-10T06:02:29.403Z,2.80
2024-04-10T06:04:57.137Z,2.70
2024-04-10T06:07:24.826Z,2.08
2024-04-10T06:09:58.963Z,1.90
2024-04-10T06:12:26.168Z,2.78
2024-04-10T06:14:54.124Z,3.20
2024-04-10T06:17:26.206Z,2.17
2024-04-10T06:19:55.213Z,2.20
2024-04-10T06:22:23.763Z,2.40
2024-04-10T06:24:52.517Z,2.10
2024-04-10T06:27:19.367Z,2.50
2024-04-10T06:29:47.727Z,2.38
2024-04-10T06:32:15.967Z,2.60
2024-04-10T06:34:43.002Z,2.50
2024-04-10T06:37:10.123Z,2.97
2024-04-10T06:39:37.248Z,1.88
2024-04-10T06:42:04.263Z,2.97
2024-04-10T06:44:31.166Z,2.60
2024-04-10T06:46:58.656Z,3.28
2024-04-10T06:49:28.826Z,2.58
2024-04-10T06:51:56.742Z,3.47
2024-04-10T06:54:23.702Z,2.30
2024-04-10T06:56:50.465Z,2.55
2024-04-10T06:59:18.070Z,2.65
2024-04-10T07:01:44.974Z,2.33
2024-04-10T07:04:11.803Z,3.00
2024-04-10T07:06:38.608Z,2.60
2024-04-10T07:09:05.361Z,2.67
2024-04-10T07:11:32.955Z,3.53
2024-04-10T07:14:03.041Z,3.55
2024-04-10T07:16:32.275Z,2.95
2024-04-10T07:19:00.184Z,3.42
2024-04-10T07:21:27.378Z,4.25
2024-04-10T07:23:58.265Z,3.00
2024-04-10T07:26:28.631Z,3.42
2024-04-10T07:28:57.374Z,2.92
2024-04-10T07:31:33.872Z,2.97
2024-04-10T07:34:02.770Z,3.13
2024-04-10T07:36:30.108Z,2.53
2024-04-10T07:38:59.090Z,3.10
2024-04-10T07:41:29.653Z,3.38
2024-04-10T07:43:56.474Z,4.05
2024-04-10T07:46:23.448Z,3.80
2024-04-10T07:48:56.327Z,2.75
2024-04-10T07:51:24.379Z,2.92
2024-04-10T07:53:52.109Z,2.67
2024-04-10T07:56:19.131Z,3.65
2024-04-10T07:58:46.148Z,2.92
2024-04-10T08:01:14.784Z,3.13
2024-04-10T08:03:41.820Z,3.90
2024-04-10T08:06:11.128Z,2.65
2024-04-10T08:08:41.034Z,2.50
2024-04-10T08:11:09.741Z,4.40
2024-04-10T08:13:37.184Z,2.65
2024-04-10T08:16:06.491Z,2.58
2024-04-10T08:18:38.738Z,5.68
2024-04-10T08:21:10.327Z,3.00
2024-04-10T08:26:19.847Z,3.65
2024-04-10T08:28:52.711Z,3.00
2024-04-10T08:31:29.431Z,2.72
2024-04-10T08:33:56.885Z,2.90
2024-04-10T08:36:25.405Z,3.30
2024-04-10T08:38:52.927Z,2.85
2024-04-10T08:41:24.107Z,2.88
2024-04-10T08:43:53.092Z,2.83
2024-04-10T08:46:22.748Z,2.08
2024-04-10T08:48:52.984Z,2.67
2024-04-10T08:51:23.109Z,2.83
2024-04-10T08:53:52.358Z,3.40
2024-04-10T08:56:19.219Z,3.13
2024-04-10T08:58:46.061Z,3.63
2024-04-10T09:01:37.548Z,3.08
2024-04-10T09:04:10.204Z,2.42
2024-04-10T09:06:37.888Z,2.70
2024-04-10T09:09:08.108Z,2.00
2024-04-10T09:11:35.242Z,2.92
2024-04-10T09:14:03.115Z,1.88
2024-04-10T09:16:30.810Z,2.15
2024-04-10T09:19:08.742Z,2.20
2024-04-10T09:21:35.611Z,1.83
2024-04-10T09:24:04.846Z,1.63
2024-04-10T09:26:31.963Z,2.20
2024-04-10T09:29:12.765Z,2.13
2024-04-10T09:31:40.569Z,2.47
2024-04-10T09:34:07.877Z,1.90
2024-04-10T09:36:34.962Z,1.77
2024-04-10T09:39:02.964Z,2.42
2024-04-10T09:41:32.464Z,1.95
2024-04-10T09:44:00.278Z,2.22
2024-04-10T09:46:35.720Z,2.58
2024-04-10T09:49:13.354Z,2.85
2024-04-10T09:51:41.315Z,1.75
2024-04-10T09:54:12.935Z,1.90
2024-04-10T09:56:44.152Z,1.67
2024-04-10T09:59:14.658Z,1.80
2024-04-10T10:01:42.974Z,1.77
2024-04-10T10:04:10.807Z,2.88
2024-04-10T10:06:37.961Z,2.00
2024-04-10T10:09:06.750Z,1.45
2024-04-10T10:11:33.828Z,1.30
2024-04-10T10:14:03.985Z,2.20
2024-04-10T10:16:33.325Z,1.45
2024-04-10T10:19:02.361Z,1.65
2024-04-10T10:21:31.233Z,1.50
2024-04-10T10:24:00.477Z,1.70
2024-04-10T10:26:28.384Z,1.70
2024-04-10T10:29:09.026Z,2.22
2024-04-10T10:31:37.352Z,1.48
2024-04-10T10:34:07.281Z,1.80
2024-04-10T10:36:37.570Z,1.60
2024-04-10T10:39:16.512Z,1.50
2024-04-10T10:41:43.577Z,1.15
2024-04-10T10:44:10.447Z,1.17
2024-04-10T10:46:37.427Z,1.73
2024-04-10T10:49:04.796Z,1.58
2024-04-10T10:51:32.568Z,1.30
2024-04-10T10:53:59.981Z,1.92
2024-04-10T10:56:33.479Z,1.67
2024-04-10T10:59:13.328Z,1.67
2024-04-10T11:01:41.688Z,1.30
2024-04-10T11:04:16.737Z,1.58
2024-04-10T11:06:44.616Z,1.45
2024-04-10T11:09:14.044Z,2.08
2024-04-10T11:11:42.031Z,1.60
2024-04-10T11:14:16.040Z,1.70
2024-04-10T11:16:43.178Z,1.90
2024-04-10T11:19:10.274Z,1.75
2024-04-10T11:21:40.413Z,2.70
2024-04-10T11:24:08.120Z,1.63
2024-04-10T11:26:35.022Z,1.60
2024-04-10T11:29:02.261Z,2.50
2024-04-10T11:31:29.098Z,1.70
2024-04-10T11:33:56.323Z,2.00
2024-04-10T11:36:23.479Z,1.63
2024-04-10T11:38:50.703Z,2.05
2024-04-10T11:41:19.100Z,1.80
2024-04-10T11:43:46.434Z,2.33
2024-04-10T11:46:13.317Z,1.95
2024-04-10T11:48:40.474Z,3.15
2024-04-10T11:51:07.502Z,1.33
2024-04-10T11:53:34.767Z,1.73
2024-04-10T11:56:01.599Z,1.95
2024-04-10T11:58:28.394Z,2.17
2024-04-10T12:00:55.195Z,2.05
2024-04-10T12:03:22.895Z,2.10
2024-04-10T12:05:51.477Z,1.80
2024-04-10T12:08:20.129Z,2.00
2024-04-10T12:10:46.956Z,1.60
2024-04-10T12:13:13.707Z,1.50
2024-04-10T12:15:40.440Z,1.67
2024-04-10T12:18:07.267Z,1.60
2024-04-10T12:20:34.094Z,1.98
2024-04-10T12:23:01.760Z,1.63
2024-04-10T12:25:28.625Z,2.55
2024-04-10T12:27:56.021Z,1.90
2024-04-10T12:30:23.614Z,2.05
2024-04-10T12:32:50.548Z,1.80
2024-04-10T12:35:36.277Z,1.80
2024-04-10T12:38:10.410Z,1.83
2024-04-10T12:40:37.899Z,2.25
2024-04-10T12:43:05.262Z,1.92
2024-04-10T12:45:32.597Z,2.17
2024-04-10T12:47:59.821Z,1.35
2024-04-10T12:50:27.497Z,1.50
2024-04-10T12:52:54.405Z,1.75
2024-04-10T12:55:21.205Z,1.50
2024-04-10T12:57:48.497Z,1.98
2024-04-10T13:00:15.599Z,1.77
2024-04-10T13:02:44.941Z,1.38
2024-04-10T13:05:12.740Z,2.00
2024-04-10T13:07:39.764Z,1.70
2024-04-10T13:10:06.938Z,1.58
2024-04-10T13:12:34.086Z,1.73
2024-04-10T13:15:02.123Z,1.52
2024-04-10T13:17:31.351Z,1.42
2024-04-10T13:19:59.326Z,1.60
2024-04-10T13:22:28.893Z,1.30
2024-04-10T13:24:55.768Z,2.45
2024-04-10T13:27:22.523Z,1.48
2024-04-10T13:29:52.306Z,1.58
2024-04-10T13:32:19.382Z,1.33
2024-04-10T13:34:53.533Z,1.80
2024-04-10T13:37:30.216Z,2.03
2024-04-10T13:40:01.119Z,2.20
2024-04-10T13:42:27.906Z,1.67
2024-04-10T13:44:54.793Z,1.90
2024-04-10T13:47:22.220Z,1.58
2024-04-10T13:49:49.025Z,1.70
2024-04-10T13:52:15.792Z,1.83
2024-04-10T13:54:42.572Z,1.40
2024-04-10T13:57:09.379Z,1.83
2024-04-10T13:59:36.148Z,1.40
2024-04-10T14:02:03.009Z,2.00
2024-04-10T14:04:29.898Z,1.80
2024-04-10T14:06:56.800Z,2.78
2024-04-10T14:09:23.677Z,1.60
2024-04-10T14:11:51.368Z,2.10
2024-04-10T14:14:18.537Z,2.00
2024-04-10T14:16:49.569Z,1.55
2024-04-10T14:21:43.592Z,1.75
2024-04-10T14:24:10.434Z,2.08
2024-04-10T14:26:37.540Z,1.75
2024-04-10T14:29:04.320Z,2.67
2024-04-10T14:31:31.214Z,1.77
2024-04-10T14:33:58.387Z,1.45
2024-04-10T14:36:25.327Z,1.73
2024-04-10T14:38:52.207Z,2.00
2024-04-10T14:41:18.990Z,1.98
2024-04-10T14:43:46.507Z,1.60
2024-04-10T14:46:18.100Z,1.45
2024-04-10T14:48:47.660Z,1.95
2024-04-10T14:51:14.609Z,1.75
2024-04-10T14:53:44.636Z,2.20
2024-04-10T14:56:14.797Z,2.28
2024-04-10T14:58:42.353Z,1.80
2024-04-10T15:01:15.591Z,1.92
2024-04-10T15:03:43.372Z,1.95
2024-04-10T15:06:10.909Z,1.90
2024-04-10T15:08:38.114Z,1.65
2024-04-10T15:11:05.476Z,1.60
2024-04-10T15:13:32.797Z,1.65
2024-04-10T15:15:59.638Z,1.48
2024-04-10T15:18:29.569Z,1.73
2024-04-10T15:20:59.129Z,2.13
2024-04-10T15:23:26.633Z,1.90
2024-04-10T15:25:54.953Z,1.90
2024-04-10T15:28:22.690Z,1.83
2024-04-10T15:31:01.444Z,1.60
2024-04-10T15:33:29.941Z,1.70
2024-04-10T15:36:07.165Z,2.22
2024-04-10T15:38:35.660Z,1.67
2024-04-10T15:41:06.946Z,1.40
2024-04-10T15:43:34.554Z,1.73
2024-04-10T15:46:02.998Z,1.52
2024-04-10T15:48:30.788Z,1.40
2024-04-10T15:50:59.712Z,2.03
2024-04-10T15:53:27.033Z,1.40
2024-04-10T15:56:08.239Z,1.75
2024-04-10T15:58:36.454Z,1.88
2024-04-10T16:01:05.800Z,1.65
2024-04-10T16:03:35.190Z,1.35
2024-04-10T16:06:03.734Z,1.63
2024-04-10T16:08:31.101Z,1.40
2024-04-10T16:10:59.495Z,1.35
2024-04-10T16:13:27.322Z,1.35
2024-04-10T16:15:54.792Z,1.13
2024-04-10T16:18:23.963Z,1.50
2024-04-10T16:20:50.931Z,1.05
2024-04-10T16:23:18.161Z,1.77
2024-04-10T16:25:45.019Z,1.15
2024-04-10T16:28:11.921Z,1.20
2024-04-10T16:30:41.948Z,1.20
2024-04-10T16:33:08.864Z,1.50
2024-04-10T16:35:35.836Z,1.05
2024-04-10T16:38:02.762Z,0.77
2024-04-10T16:40:29.491Z,1.17
2024-04-10T16:42:56.290Z,0.95
2024-04-10T16:45:25.548Z,1.30
2024-04-10T16:47:52.602Z,0.95
2024-04-10T16:50:19.731Z,0.90
2024-04-10T16:52:51.055Z,1.00
2024-04-10T16:55:18.177Z,1.08
2024-04-10T16:57:44.961Z,0.90
2024-04-10T17:00:12.587Z,1.15
2024-04-10T17:02:39.582Z,0.85
2024-04-10T17:05:07.025Z,1.10
2024-04-10T17:07:34.090Z,0.70
2024-04-10T17:10:00.912Z,1.02
2024-04-10T17:12:30.538Z,0.98
2024-04-10T17:14:58.258Z,0.80
2024-04-10T17:19:16.314Z,0.68
2024-04-10T17:21:50.808Z,1.05
2024-04-10T17:24:18.732Z,0.82
2024-04-10T17:26:46.187Z,0.98
2024-04-10T17:29:20.236Z,0.90
2024-04-10T17:31:51.701Z,0.80
2024-04-10T17:34:19.733Z,0.90
2024-04-10T17:36:46.608Z,0.80
2024-04-10T17:39:13.545Z,0.90
2024-04-10T17:41:40.512Z,0.68
2024-04-10T17:44:08.080Z,0.88
2024-04-10T17:46:35.280Z,0.70
2024-04-10T17:49:02.251Z,0.70
2024-04-10T17:51:29.159Z,1.35
2024-04-10T17:53:57.211Z,0.85
2024-04-10T17:56:24.524Z,1.00
2024-04-10T17:58:51.445Z,0.88
2024-04-10T18:01:18.681Z,0.90
2024-04-10T18:03:52.698Z,1.48
2024-04-10T18:06:20.380Z,0.95
2024-04-10T18:08:47.346Z,0.90
2024-04-10T18:11:14.539Z,1.25
2024-04-10T18:13:41.277Z,1.38
2024-04-10T18:16:08.554Z,1.40
2024-04-10T18:18:40.231Z,1.08
2024-04-10T18:21:07.653Z,1.10
2024-04-10T18:23:36.722Z,1.10
2024-04-10T18:26:08.147Z,1.80
2024-04-10T18:28:37.428Z,2.10
2024-04-10T18:31:05.737Z,1.40
2024-04-10T18:33:34.144Z,1.58
2024-04-10T18:36:04.985Z,1.13
2024-04-10T18:38:32.666Z,1.45
2024-04-10T18:41:06.169Z,1.85
2024-04-10T18:43:36.740Z,1.23
2024-04-10T18:46:07.317Z,1.60
2024-04-10T18:48:35.775Z,1.35
2024-04-10T18:51:14.745Z,1.38
2024-04-10T18:53:41.690Z,1.50
2024-04-10T18:56:08.506Z,1.42
2024-04-10T18:58:35.419Z,2.10
2024-04-10T19:01:05.562Z,1.73
2024-04-10T19:03:34.239Z,1.85
2024-04-10T19:06:09.479Z,1.70
2024-04-10T19:08:37.723Z,2.17
2024-04-10T19:11:07.505Z,1.45
2024-04-10T19:13:35.166Z,1.70
2024-04-10T19:16:02.684Z,1.75
2024-04-10T19:18:32.053Z,2.35
2024-04-10T19:21:04.663Z,2.20
2024-04-10T19:23:33.686Z,2.00
2024-04-10T19:26:02.574Z,2.00
2024-04-10T19:28:31.930Z,2.03
2024-04-10T19:31:01.055Z,1.90
2024-04-10T19:33:28.251Z,2.28
2024-04-10T19:36:11.010Z,2.17
2024-04-10T19:38:38.599Z,2.05
2024-04-10T19:41:08.187Z,2.20
2024-04-10T19:43:36.020Z,2.20
2024-04-10T19:46:03.936Z,2.33
2024-04-10T19:48:31.227Z,2.70
2024-04-10T19:51:04.460Z,2.55
2024-04-10T19:53:34.439Z,2.38
2024-04-10T19:56:04.456Z,2.65
2024-04-10T19:58:34.541Z,2.63
2024-04-10T20:01:08.094Z,3.47
2024-04-10T20:03:36.263Z,2.65
2024-04-10T20:06:05.170Z,3.00
2024-04-10T20:08:39.162Z,3.20
2024-04-10T20:11:07.301Z,2.88
2024-04-10T20:13:34.710Z,3.53
2024-04-10T20:16:05.355Z,3.22
2024-04-10T20:18:34.079Z,3.25
2024-04-10T20:21:04.675Z,3.25
2024-04-10T20:23:31.843Z,3.72
2024-04-10T20:25:58.910Z,4.40
2024-04-10T20:28:28.186Z,3.97
2024-04-10T20:31:16.386Z,4.07
2024-04-10T20:33:44.398Z,4.35
2024-04-10T20:36:12.256Z,4.10
2024-04-10T20:38:39.538Z,4.80
2024-04-10T20:41:11.255Z,4.40
2024-04-10T20:43:39.111Z,4.82
2024-04-10T20:46:07.552Z,5.03
2024-04-10T20:48:36.516Z,4.55
2024-04-10T20:51:14.583Z,4.60
2024-04-10T20:53:43.414Z,4.75
2024-04-10T20:56:12.591Z,4.95
2024-04-10T20:58:41.480Z,4.85
2024-04-10T21:01:14.425Z,4.47
2024-04-10T21:03:43.435Z,4.97
2024-04-10T21:06:12.862Z,4.18
2024-04-10T21:08:59.468Z,4.40
2024-04-10T21:11:46.651Z,4.30
2024-04-10T21:14:32.172Z,4.32
2024-04-10T21:17:17.747Z,3.85
2024-04-10T21:20:03.895Z,4.25
2024-04-10T21:22:49.599Z,4.13
2024-04-10T21:25:39.428Z,3.80
2024-04-10T21:28:25.390Z,3.50
2024-04-10T21:31:12.386Z,3.30
2024-04-10T21:33:57.974Z,3.22
2024-04-10T21:36:43.174Z,3.60
2024-04-10T21:39:28.519Z,3.58
2024-04-10T21:42:14.201Z,3.25
2024-04-10T21:45:01.449Z,4.13
2024-04-10T21:47:48.561Z,3.67
2024-04-10T21:50:34.303Z,3.50
2024-04-10T21:53:20.138Z,3.97
2024-04-10T21:56:06.470Z,3.95
2024-04-10T21:58:52.113Z,4.03
2024-04-10T22:01:45.234Z,3.78
2024-04-10T22:07:26.065Z,4.90
2024-04-10T22:09:52.871Z,4.05
2024-04-10T22:12:19.617Z,4.07
2024-04-10T22:14:46.635Z,3.92
2024-04-10T22:17:31.927Z,4.47
2024-04-10T22:20:22.135Z,4.45
2024-04-10T22:23:07.757Z,4.70
2024-04-10T22:25:45.977Z,4.40
2024-04-10T22:28:12.743Z,4.45
2024-04-10T22:30:39.475Z,4.40
2024-04-10T22:33:11.410Z,4.75
2024-04-10T22:35:38.546Z,4.95
2024-04-10T22:38:05.362Z,4.57
2024-04-10T22:40:32.225Z,4.85
2024-04-10T22:42:59.445Z,5.00
2024-04-10T22:45:29.220Z,4.57
2024-04-10T22:47:56.094Z,4.38
2024-04-10T22:50:23.045Z,4.43
2024-04-10T22:52:50.383Z,4.80
2024-04-10T22:55:17.118Z,4.55
2024-04-10T22:57:44.034Z,4.88
2024-04-10T23:00:12.117Z,4.00
2024-04-10T23:02:39.197Z,4.93
2024-04-10T23:05:17.797Z,3.95
2024-04-10T23:08:25.423Z,3.70
2024-04-10T23:10:41.021Z,3.50
2024-04-10T23:13:07.743Z,3.72
2024-04-10T23:15:34.686Z,3.80
2024-04-10T23:18:02.790Z,4.18
2024-04-10T23:20:30.718Z,3.63
2024-04-10T23:22:57.826Z,3.38
2024-04-10T23:25:24.661Z,3.05
2024-04-10T23:27:52.148Z,3.70
2024-04-10T23:30:18.899Z,3.30
2024-04-10T23:32:45.771Z,3.70
2024-04-10T23:35:12.700Z,3.80
2024-04-10T23:37:39.415Z,3.78
2024-04-10T23:40:08.550Z,3.63
2024-04-10T23:42:35.253Z,3.63
2024-04-10T23:45:04.114Z,3.78
2024-04-10T23:47:31.856Z,3.03
2024-04-10T23:49:58.803Z,3.00
2024-04-10T23:52:25.547Z,3.55
2024-04-10T23:54:53.087Z,3.13
2024-04-10T23:57:19.924Z,3.25
2024-04-10T23:59:46.692Z,2.92
